sensor_id;sensor_type;location;lat;lon;timestamp;pressure;altitude;pressure_sealevel;temperature;humidity
35655;BME280;21773;50.010;19.972;2023-04-03T00:02:31;99048.16;;;8.80;55.69
35655;BME280;21773;50.010;19.972;2023-04-03T00:05:34;99044.66;;;8.79;55.47
35655;BME280;21773;50.010;19.972;2023-04-03T00:08:38;99047.75;;;8.76;55.47
35655;BME280;21773;50.010;19.972;2023-04-03T00:11:43;99028.09;;;8.62;55.55
35655;BME280;21773;50.010;19.972;2023-04-03T00:14:46;99037.41;;;8.73;55.98
35655;BME280;21773;50.010;19.972;2023-04-03T00:17:50;99046.91;;;8.76;55.62
35655;BME280;21773;50.010;19.972;2023-04-03T00:20:53;99036.41;;;8.74;55.54
35655;BME280;21773;50.010;19.972;2023-04-03T00:23:57;99042.38;;;8.69;55.56
35655;BME280;21773;50.010;19.972;2023-04-03T00:27:01;99050.00;;;8.66;55.63
35655;BME280;21773;50.010;19.972;2023-04-03T00:30:07;99054.97;;;8.62;55.60
35655;BME280;21773;50.010;19.972;2023-04-03T00:33:12;99050.00;;;8.53;56.11
35655;BME280;21773;50.010;19.972;2023-04-03T00:36:16;99059.72;;;8.54;56.38
35655;BME280;21773;50.010;19.972;2023-04-03T00:39:20;99061.19;;;8.50;56.25
35655;BME280;21773;50.010;19.972;2023-04-03T00:42:25;99056.63;;;8.57;56.26
35655;BME280;21773;50.010;19.972;2023-04-03T00:45:33;99061.97;;;8.37;56.26
35655;BME280;21773;50.010;19.972;2023-04-03T00:48:40;99071.47;;;8.33;56.37
35655;BME280;21773;50.010;19.972;2023-04-03T00:51:44;99066.13;;;8.40;56.24
35655;BME280;21773;50.010;19.972;2023-04-03T00:54:50;99070.03;;;8.37;56.34
35655;BME280;21773;50.010;19.972;2023-04-03T00:57:56;99073.94;;;8.35;56.31
35655;BME280;21773;50.010;19.972;2023-04-03T01:01:04;99058.78;;;8.27;55.76
35655;BME280;21773;50.010;19.972;2023-04-03T01:04:27;99073.06;;;8.27;56.25
35655;BME280;21773;50.010;19.972;2023-04-03T01:07:31;99080.94;;;8.29;56.02
35655;BME280;21773;50.010;19.972;2023-04-03T01:10:36;99081.72;;;8.23;56.38
35655;BME280;21773;50.010;19.972;2023-04-03T01:13:41;99082.13;;;8.26;56.38
35655;BME280;21773;50.010;19.972;2023-04-03T01:16:52;99079.47;;;8.20;56.40
35655;BME280;21773;50.010;19.972;2023-04-03T01:20:10;99072.63;;;8.11;56.50
35655;BME280;21773;50.010;19.972;2023-04-03T01:23:25;99081.69;;;8.10;56.65
35655;BME280;21773;50.010;19.972;2023-04-03T01:26:29;99100.31;;;8.18;56.48
35655;BME280;21773;50.010;19.972;2023-04-03T01:29:34;99085.81;;;8.12;56.27
35655;BME280;21773;50.010;19.972;2023-04-03T01:32:39;99096.78;;;8.11;56.27
35655;BME280;21773;50.010;19.972;2023-04-03T01:35:43;99094.06;;;8.04;56.38
35655;BME280;21773;50.010;19.972;2023-04-03T01:38:47;99080.59;;;7.91;56.35
35655;BME280;21773;50.010;19.972;2023-04-03T01:41:51;99099.00;;;8.01;56.66
35655;BME280;21773;50.010;19.972;2023-04-03T01:45:04;99098.56;;;7.97;56.76
35655;BME280;21773;50.010;19.972;2023-04-03T01:48:09;99101.47;;;7.96;56.90
35655;BME280;21773;50.010;19.972;2023-04-03T01:51:13;99110.78;;;8.00;56.75
35655;BME280;21773;50.010;19.972;2023-04-03T01:54:16;99103.31;;;8.02;56.58
35655;BME280;21773;50.010;19.972;2023-04-03T01:57:20;99106.88;;;8.09;56.49
35655;BME280;21773;50.010;19.972;2023-04-03T02:00:23;99104.41;;;8.14;56.42
35655;BME280;21773;50.010;19.972;2023-04-03T02:03:28;99116.41;;;8.18;56.24
35655;BME280;21773;50.010;19.972;2023-04-03T02:06:33;99107.53;;;8.17;56.02
35655;BME280;21773;50.010;19.972;2023-04-03T02:09:36;99111.69;;;8.20;56.15
35655;BME280;21773;50.010;19.972;2023-04-03T02:12:40;99110.63;;;8.21;56.10
35655;BME280;21773;50.010;19.972;2023-04-03T02:15:43;99110.03;;;8.19;56.09
35655;BME280;21773;50.010;19.972;2023-04-03T02:18:51;99116.00;;;8.14;56.07
35655;BME280;21773;50.010;19.972;2023-04-03T02:21:55;99112.28;;;8.15;56.33
35655;BME280;21773;50.010;19.972;2023-04-03T02:24:58;99112.44;;;8.07;56.19
35655;BME280;21773;50.010;19.972;2023-04-03T02:28:02;99118.63;;;8.08;56.52
35655;BME280;21773;50.010;19.972;2023-04-03T02:31:05;99116.59;;;8.10;56.36
35655;BME280;21773;50.010;19.972;2023-04-03T02:34:11;99120.31;;;8.09;56.54
35655;BME280;21773;50.010;19.972;2023-04-03T02:37:15;99113.44;;;8.00;55.96
35655;BME280;21773;50.010;19.972;2023-04-03T02:40:20;99120.72;;;8.12;56.22
35655;BME280;21773;50.010;19.972;2023-04-03T02:43:25;99123.22;;;8.14;56.02
35655;BME280;21773;50.010;19.972;2023-04-03T02:46:28;99126.53;;;8.16;56.22
35655;BME280;21773;50.010;19.972;2023-04-03T02:49:33;99127.13;;;8.11;56.16
35655;BME280;21773;50.010;19.972;2023-04-03T02:52:36;99133.13;;;8.13;56.01
35655;BME280;21773;50.010;19.972;2023-04-03T02:55:40;99106.19;;;7.94;56.09
35655;BME280;21773;50.010;19.972;2023-04-03T02:58:43;99123.19;;;8.07;56.00
35655;BME280;21773;50.010;19.972;2023-04-03T03:01:47;99139.75;;;8.11;56.26
35655;BME280;21773;50.010;19.972;2023-04-03T03:04:52;99138.28;;;8.08;56.33
35655;BME280;21773;50.010;19.972;2023-04-03T03:07:56;99138.22;;;8.02;56.26
35655;BME280;21773;50.010;19.972;2023-04-03T03:10:59;99140.72;;;8.03;56.01
35655;BME280;21773;50.010;19.972;2023-04-03T03:14:03;99134.09;;;7.99;55.73
35655;BME280;21773;50.010;19.972;2023-04-03T03:17:07;99139.25;;;7.94;55.56
35655;BME280;21773;50.010;19.972;2023-04-03T03:20:13;99127.19;;;7.83;55.93
35655;BME280;21773;50.010;19.972;2023-04-03T03:23:17;99134.03;;;7.86;56.04
35655;BME280;21773;50.010;19.972;2023-04-03T03:26:20;99139.19;;;7.88;56.18
35655;BME280;21773;50.010;19.972;2023-04-03T03:29:24;99141.91;;;7.94;56.08
35655;BME280;21773;50.010;19.972;2023-04-03T03:35:32;99132.63;;;7.97;55.71
35655;BME280;21773;50.010;19.972;2023-04-03T03:38:37;99149.78;;;7.96;55.59
35655;BME280;21773;50.010;19.972;2023-04-03T03:41:40;99141.75;;;8.02;55.49
35655;BME280;21773;50.010;19.972;2023-04-03T03:44:44;99141.09;;;7.94;55.62
35655;BME280;21773;50.010;19.972;2023-04-03T03:47:47;99146.47;;;7.94;55.61
35655;BME280;21773;50.010;19.972;2023-04-03T03:50:52;99150.16;;;7.86;55.79
35655;BME280;21773;50.010;19.972;2023-04-03T03:53:59;99149.50;;;7.84;55.84
35655;BME280;21773;50.010;19.972;2023-04-03T03:57:02;99149.09;;;7.87;55.78
35655;BME280;21773;50.010;19.972;2023-04-03T04:00:07;99157.50;;;7.77;56.00
35655;BME280;21773;50.010;19.972;2023-04-03T04:03:16;99152.25;;;7.63;56.06
35655;BME280;21773;50.010;19.972;2023-04-03T04:06:23;99163.03;;;7.69;56.08
35655;BME280;21773;50.010;19.972;2023-04-03T04:09:31;99158.50;;;7.70;55.43
35655;BME280;21773;50.010;19.972;2023-04-03T04:12:35;99174.13;;;7.60;55.50
35655;BME280;21773;50.010;19.972;2023-04-03T04:15:38;99181.16;;;7.61;56.04
35655;BME280;21773;50.010;19.972;2023-04-03T04:18:42;99166.50;;;7.63;55.91
35655;BME280;21773;50.010;19.972;2023-04-03T04:21:47;99171.09;;;7.69;55.92
35655;BME280;21773;50.010;19.972;2023-04-03T04:24:50;99172.75;;;7.70;55.87
35655;BME280;21773;50.010;19.972;2023-04-03T04:27:54;99174.66;;;7.76;56.15
35655;BME280;21773;50.010;19.972;2023-04-03T04:30:57;99176.09;;;7.79;55.74
35655;BME280;21773;50.010;19.972;2023-04-03T04:34:02;99175.69;;;7.82;55.33
35655;BME280;21773;50.010;19.972;2023-04-03T04:37:07;99179.03;;;7.84;55.06
35655;BME280;21773;50.010;19.972;2023-04-03T04:40:11;99189.13;;;7.82;55.08
35655;BME280;21773;50.010;19.972;2023-04-03T04:43:16;99184.94;;;7.73;54.89
35655;BME280;21773;50.010;19.972;2023-04-03T04:46:23;99183.69;;;7.69;55.04
35655;BME280;21773;50.010;19.972;2023-04-03T04:49:31;99192.75;;;7.68;55.30
35655;BME280;21773;50.010;19.972;2023-04-03T04:52:37;99190.28;;;7.66;54.62
35655;BME280;21773;50.010;19.972;2023-04-03T04:55:42;99190.47;;;7.65;54.68
35655;BME280;21773;50.010;19.972;2023-04-03T04:58:46;99199.16;;;7.67;54.78
35655;BME280;21773;50.010;19.972;2023-04-03T05:01:51;99199.16;;;7.67;54.68
35655;BME280;21773;50.010;19.972;2023-04-03T05:04:54;99201.00;;;7.66;54.77
35655;BME280;21773;50.010;19.972;2023-04-03T05:08:03;99211.59;;;7.74;54.61
35655;BME280;21773;50.010;19.972;2023-04-03T05:11:07;99177.72;;;7.46;54.70
35655;BME280;21773;50.010;19.972;2023-04-03T05:14:12;99207.63;;;7.70;54.47
35655;BME280;21773;50.010;19.972;2023-04-03T05:17:17;99210.75;;;7.74;54.26
35655;BME280;21773;50.010;19.972;2023-04-03T05:20:24;99211.44;;;7.82;54.25
35655;BME280;21773;50.010;19.972;2023-04-03T05:23:29;99211.88;;;7.86;54.43
35655;BME280;21773;50.010;19.972;2023-04-03T05:26:36;99208.63;;;7.91;54.20
35655;BME280;21773;50.010;19.972;2023-04-03T05:29:40;99214.84;;;7.98;53.77
35655;BME280;21773;50.010;19.972;2023-04-03T05:32:50;99224.16;;;8.02;53.96
35655;BME280;21773;50.010;19.972;2023-04-03T05:36:03;99226.22;;;8.00;54.07
35655;BME280;21773;50.010;19.972;2023-04-03T05:39:12;99219.34;;;7.91;54.25
35655;BME280;21773;50.010;19.972;2023-04-03T05:42:18;99230.50;;;7.94;54.62
35655;BME280;21773;50.010;19.972;2023-04-03T05:45:21;99230.22;;;7.82;54.49
35655;BME280;21773;50.010;19.972;2023-04-03T05:48:25;99228.81;;;7.87;54.23
35655;BME280;21773;50.010;19.972;2023-04-03T05:51:32;99231.28;;;7.88;53.83
35655;BME280;21773;50.010;19.972;2023-04-03T05:54:45;99238.66;;;7.79;52.20
35655;BME280;21773;50.010;19.972;2023-04-03T05:57:55;99243.34;;;7.71;52.56
35655;BME280;21773;50.010;19.972;2023-04-03T06:00:59;99232.22;;;7.74;52.50
35655;BME280;21773;50.010;19.972;2023-04-03T06:04:03;99244.69;;;7.81;52.66
35655;BME280;21773;50.010;19.972;2023-04-03T06:07:09;99254.97;;;7.78;52.70
35655;BME280;21773;50.010;19.972;2023-04-03T06:10:15;99252.63;;;7.68;53.09
35655;BME280;21773;50.010;19.972;2023-04-03T06:13:19;99256.19;;;7.75;52.79
35655;BME280;21773;50.010;19.972;2023-04-03T06:16:25;99263.59;;;7.73;52.87
35655;BME280;21773;50.010;19.972;2023-04-03T06:19:29;99264.63;;;7.72;52.44
35655;BME280;21773;50.010;19.972;2023-04-03T06:22:32;99264.25;;;7.75;52.82
35655;BME280;21773;50.010;19.972;2023-04-03T06:25:37;99270.38;;;7.69;52.43
35655;BME280;21773;50.010;19.972;2023-04-03T06:28:41;99270.22;;;7.77;52.90
35655;BME280;21773;50.010;19.972;2023-04-03T06:31:45;99271.13;;;7.84;52.51
35655;BME280;21773;50.010;19.972;2023-04-03T06:34:48;99273.66;;;7.93;51.57
35655;BME280;21773;50.010;19.972;2023-04-03T06:37:52;99265.84;;;7.98;52.21
35655;BME280;21773;50.010;19.972;2023-04-03T06:40:58;99282.25;;;8.09;51.82
35655;BME280;21773;50.010;19.972;2023-04-03T06:44:02;99284.59;;;8.19;51.28
35655;BME280;21773;50.010;19.972;2023-04-03T06:47:06;99291.22;;;8.23;49.73
35655;BME280;21773;50.010;19.972;2023-04-03T06:50:11;99283.56;;;8.20;49.49
35655;BME280;21773;50.010;19.972;2023-04-03T06:53:17;99298.78;;;8.34;49.72
35655;BME280;21773;50.010;19.972;2023-04-03T06:56:22;99290.13;;;8.39;48.34
35655;BME280;21773;50.010;19.972;2023-04-03T06:59:27;99290.34;;;8.44;48.05
35655;BME280;21773;50.010;19.972;2023-04-03T07:02:31;99290.97;;;8.46;48.18
35655;BME280;21773;50.010;19.972;2023-04-03T07:05:35;99296.88;;;8.62;47.96
35655;BME280;21773;50.010;19.972;2023-04-03T07:08:39;99295.06;;;8.69;47.35
35655;BME280;21773;50.010;19.972;2023-04-03T07:11:44;99296.31;;;8.80;46.01
35655;BME280;21773;50.010;19.972;2023-04-03T07:14:47;99305.84;;;8.83;46.38
35655;BME280;21773;50.010;19.972;2023-04-03T07:17:50;99289.25;;;8.73;45.52
35655;BME280;21773;50.010;19.972;2023-04-03T07:20:54;99315.53;;;8.77;45.82
35655;BME280;21773;50.010;19.972;2023-04-03T07:23:57;99315.94;;;8.74;45.48
35655;BME280;21773;50.010;19.972;2023-04-03T07:27:02;99316.34;;;8.71;45.10
35655;BME280;21773;50.010;19.972;2023-04-03T07:30:07;99322.16;;;8.75;44.72
35655;BME280;21773;50.010;19.972;2023-04-03T07:33:11;99318.59;;;8.67;43.75
35655;BME280;21773;50.010;19.972;2023-04-03T07:36:17;99333.56;;;8.83;44.52
35655;BME280;21773;50.010;19.972;2023-04-03T07:39:21;99328.22;;;8.90;43.84
35655;BME280;21773;50.010;19.972;2023-04-03T07:42:25;99334.91;;;9.07;43.69
35655;BME280;21773;50.010;19.972;2023-04-03T07:45:29;99338.34;;;9.42;44.40
35655;BME280;21773;50.010;19.972;2023-04-03T07:48:33;99337.56;;;9.87;42.37
35655;BME280;21773;50.010;19.972;2023-04-03T07:51:38;99346.94;;;10.44;41.91
35655;BME280;21773;50.010;19.972;2023-04-03T07:54:42;99348.50;;;10.84;41.03
35655;BME280;21773;50.010;19.972;2023-04-03T07:57:46;99352.53;;;11.13;39.80
35655;BME280;21773;50.010;19.972;2023-04-03T08:00:52;99335.91;;;11.16;38.85
35655;BME280;21773;50.010;19.972;2023-04-03T08:03:55;99336.38;;;11.51;38.88
35655;BME280;21773;50.010;19.972;2023-04-03T08:06:59;99356.38;;;11.75;38.41
35655;BME280;21773;50.010;19.972;2023-04-03T08:10:03;99351.72;;;11.89;38.15
35655;BME280;21773;50.010;19.972;2023-04-03T08:13:08;99343.72;;;12.07;37.32
35655;BME280;21773;50.010;19.972;2023-04-03T08:16:15;99355.81;;;12.23;38.23
35655;BME280;21773;50.010;19.972;2023-04-03T08:19:19;99353.69;;;12.06;36.83
35655;BME280;21773;50.010;19.972;2023-04-03T08:22:27;99350.31;;;11.86;36.56
35655;BME280;21773;50.010;19.972;2023-04-03T08:25:31;99359.91;;;11.82;37.57
35655;BME280;21773;50.010;19.972;2023-04-03T08:28:35;99358.25;;;11.75;37.70
35655;BME280;21773;50.010;19.972;2023-04-03T08:31:39;99359.16;;;11.93;38.41
35655;BME280;21773;50.010;19.972;2023-04-03T08:34:42;99360.28;;;11.86;37.98
35655;BME280;21773;50.010;19.972;2023-04-03T08:37:46;99367.44;;;11.67;37.64
35655;BME280;21773;50.010;19.972;2023-04-03T08:40:59;99363.28;;;11.20;37.43
35655;BME280;21773;50.010;19.972;2023-04-03T08:44:14;99364.06;;;10.76;37.86
35655;BME280;21773;50.010;19.972;2023-04-03T08:47:23;99378.22;;;10.38;39.60
35655;BME280;21773;50.010;19.972;2023-04-03T08:50:31;99377.00;;;10.28;39.66
35655;BME280;21773;50.010;19.972;2023-04-03T08:53:40;99380.50;;;10.22;40.44
35655;BME280;21773;50.010;19.972;2023-04-03T08:56:45;99379.69;;;10.34;39.55
35655;BME280;21773;50.010;19.972;2023-04-03T08:59:50;99379.66;;;10.41;39.91
35655;BME280;21773;50.010;19.972;2023-04-03T09:02:55;99378.00;;;10.53;39.17
35655;BME280;21773;50.010;19.972;2023-04-03T09:06:04;99387.75;;;10.41;39.72
35655;BME280;21773;50.010;19.972;2023-04-03T09:09:14;99385.28;;;10.39;39.57
35655;BME280;21773;50.010;19.972;2023-04-03T09:12:21;99392.97;;;10.36;38.83
35655;BME280;21773;50.010;19.972;2023-04-03T09:15:29;99384.88;;;10.29;39.10
35655;BME280;21773;50.010;19.972;2023-04-03T09:18:45;99386.75;;;10.29;39.55
35655;BME280;21773;50.010;19.972;2023-04-03T09:21:52;99393.34;;;10.26;39.64
35655;BME280;21773;50.010;19.972;2023-04-03T09:24:58;99404.31;;;10.12;39.86
35655;BME280;21773;50.010;19.972;2023-04-03T09:28:03;99407.19;;;9.77;40.20
35655;BME280;21773;50.010;19.972;2023-04-03T09:31:20;99413.38;;;9.71;40.91
35655;BME280;21773;50.010;19.972;2023-04-03T09:34:27;99416.63;;;9.53;41.32
35655;BME280;21773;50.010;19.972;2023-04-03T09:37:39;99429.00;;;9.41;42.74
35655;BME280;21773;50.010;19.972;2023-04-03T09:40:44;99440.16;;;9.38;43.49
35655;BME280;21773;50.010;19.972;2023-04-03T09:43:53;99442.19;;;9.30;44.24
35655;BME280;21773;50.010;19.972;2023-04-03T09:46:58;99439.69;;;9.22;44.74
35655;BME280;21773;50.010;19.972;2023-04-03T09:50:18;99437.78;;;9.16;44.16
35655;BME280;21773;50.010;19.972;2023-04-03T09:53:31;99440.41;;;9.09;44.52
35655;BME280;21773;50.010;19.972;2023-04-03T09:56:35;99440.78;;;8.99;45.01
35655;BME280;21773;50.010;19.972;2023-04-03T09:59:44;99450.50;;;8.94;44.36
35655;BME280;21773;50.010;19.972;2023-04-03T10:02:53;99449.91;;;8.98;45.06
35655;BME280;21773;50.010;19.972;2023-04-03T10:05:58;99439.09;;;8.92;44.29
35655;BME280;21773;50.010;19.972;2023-04-03T10:09:04;99447.88;;;9.07;44.68
35655;BME280;21773;50.010;19.972;2023-04-03T10:12:09;99442.13;;;9.17;44.15
35655;BME280;21773;50.010;19.972;2023-04-03T10:15:15;99438.63;;;9.16;42.65
35655;BME280;21773;50.010;19.972;2023-04-03T10:18:29;99447.44;;;9.38;41.98
35655;BME280;21773;50.010;19.972;2023-04-03T10:21:40;99449.31;;;9.50;41.95
35655;BME280;21773;50.010;19.972;2023-04-03T10:24:56;99450.34;;;9.49;41.24
35655;BME280;21773;50.010;19.972;2023-04-03T10:28:06;99458.81;;;9.40;40.54
35655;BME280;21773;50.010;19.972;2023-04-03T10:31:16;99450.53;;;9.41;40.87
35655;BME280;21773;50.010;19.972;2023-04-03T10:34:27;99459.34;;;9.29;40.73
35655;BME280;21773;50.010;19.972;2023-04-03T10:37:38;99453.78;;;9.30;41.50
35655;BME280;21773;50.010;19.972;2023-04-03T10:40:52;99446.81;;;9.42;42.21
35655;BME280;21773;50.010;19.972;2023-04-03T10:44:08;99441.66;;;9.47;41.37
35655;BME280;21773;50.010;19.972;2023-04-03T10:47:21;99456.59;;;9.56;40.91
35655;BME280;21773;50.010;19.972;2023-04-03T10:50:35;99448.34;;;9.65;40.82
35655;BME280;21773;50.010;19.972;2023-04-03T10:53:45;99446.91;;;9.69;40.22
35655;BME280;21773;50.010;19.972;2023-04-03T10:56:55;99440.91;;;9.73;40.31
35655;BME280;21773;50.010;19.972;2023-04-03T11:00:18;99451.44;;;9.68;39.63
35655;BME280;21773;50.010;19.972;2023-04-03T11:03:29;99445.72;;;9.84;40.09
35655;BME280;21773;50.010;19.972;2023-04-03T11:06:37;99449.66;;;9.82;41.06
35655;BME280;21773;50.010;19.972;2023-04-03T11:09:44;99456.91;;;9.81;39.89
35655;BME280;21773;50.010;19.972;2023-04-03T11:12:53;99459.97;;;9.78;40.91
35655;BME280;21773;50.010;19.972;2023-04-03T11:16:00;99462.91;;;9.77;42.56
35655;BME280;21773;50.010;19.972;2023-04-03T11:19:11;99466.19;;;9.79;41.34
35655;BME280;21773;50.010;19.972;2023-04-03T11:22:23;99459.78;;;9.80;39.57
35655;BME280;21773;50.010;19.972;2023-04-03T11:25:30;99458.81;;;10.00;39.38
35655;BME280;21773;50.010;19.972;2023-04-03T11:28:35;99458.25;;;10.38;38.26
35655;BME280;21773;50.010;19.972;2023-04-03T11:31:53;99462.59;;;10.92;36.80
35655;BME280;21773;50.010;19.972;2023-04-03T11:35:04;99454.38;;;11.89;36.63
35655;BME280;21773;50.010;19.972;2023-04-03T11:38:17;99450.75;;;12.64;35.54
35655;BME280;21773;50.010;19.972;2023-04-03T11:41:26;99448.59;;;13.16;33.53
35655;BME280;21773;50.010;19.972;2023-04-03T11:44:34;99436.34;;;13.50;33.50
35655;BME280;21773;50.010;19.972;2023-04-03T11:47:46;99442.31;;;13.58;32.83
35655;BME280;21773;50.010;19.972;2023-04-03T11:50:50;99451.25;;;13.40;33.49
35655;BME280;21773;50.010;19.972;2023-04-03T11:58:03;99437.28;;;13.00;32.64
35655;BME280;21773;50.010;19.972;2023-04-03T12:01:09;99447.34;;;13.18;33.59
35655;BME280;21773;50.010;19.972;2023-04-03T12:04:14;99438.91;;;13.63;32.81
35655;BME280;21773;50.010;19.972;2023-04-03T12:07:18;99421.50;;;13.70;31.75
35655;BME280;21773;50.010;19.972;2023-04-03T12:10:24;99435.38;;;13.62;31.25
35655;BME280;21773;50.010;19.972;2023-04-03T12:13:33;99438.16;;;13.37;31.76
35655;BME280;21773;50.010;19.972;2023-04-03T12:16:43;99437.09;;;13.20;31.42
35655;BME280;21773;50.010;19.972;2023-04-03T12:19:48;99437.19;;;13.14;31.19
35655;BME280;21773;50.010;19.972;2023-04-03T12:23:21;99444.63;;;13.18;30.88
35655;BME280;21773;50.010;19.972;2023-04-03T12:26:31;99444.25;;;13.15;30.55
35655;BME280;21773;50.010;19.972;2023-04-03T12:29:53;99440.28;;;12.92;31.07
35655;BME280;21773;50.010;19.972;2023-04-03T12:33:10;99445.25;;;12.95;30.43
35655;BME280;21773;50.010;19.972;2023-04-03T12:36:28;99437.53;;;12.99;30.88
35655;BME280;21773;50.010;19.972;2023-04-03T12:39:48;99438.88;;;13.08;30.32
35655;BME280;21773;50.010;19.972;2023-04-03T12:43:18;99441.19;;;12.62;29.00
35655;BME280;21773;50.010;19.972;2023-04-03T12:46:28;99444.81;;;12.98;30.41
35655;BME280;21773;50.010;19.972;2023-04-03T12:49:39;99437.94;;;13.21;28.63
35655;BME280;21773;50.010;19.972;2023-04-03T12:52:45;99441.75;;;13.68;28.55
35655;BME280;21773;50.010;19.972;2023-04-03T12:55:54;99437.56;;;13.83;27.67
35655;BME280;21773;50.010;19.972;2023-04-03T13:02:26;99442.38;;;13.52;28.63
35655;BME280;21773;50.010;19.972;2023-04-03T13:05:31;99438.84;;;13.51;28.87
35655;BME280;21773;50.010;19.972;2023-04-03T13:08:48;99443.78;;;13.72;29.10
35655;BME280;21773;50.010;19.972;2023-04-03T13:11:56;99439.84;;;13.68;28.99
35655;BME280;21773;50.010;19.972;2023-04-03T13:15:11;99445.81;;;13.77;28.47
35655;BME280;21773;50.010;19.972;2023-04-03T13:18:25;99442.19;;;13.65;28.10
35655;BME280;21773;50.010;19.972;2023-04-03T13:21:31;99420.00;;;13.56;28.98
35655;BME280;21773;50.010;19.972;2023-04-03T13:24:37;99433.09;;;13.59;28.76
35655;BME280;21773;50.010;19.972;2023-04-03T13:27:42;99427.66;;;13.59;28.21
35655;BME280;21773;50.010;19.972;2023-04-03T13:30:56;99434.75;;;13.60;28.48
35655;BME280;21773;50.010;19.972;2023-04-03T13:34:06;99438.72;;;13.76;28.17
35655;BME280;21773;50.010;19.972;2023-04-03T13:37:20;99430.19;;;13.91;27.43
35655;BME280;21773;50.010;19.972;2023-04-03T13:40:24;99434.63;;;14.15;27.93
35655;BME280;21773;50.010;19.972;2023-04-03T13:43:36;99440.03;;;14.45;27.43
35655;BME280;21773;50.010;19.972;2023-04-03T13:46:43;99446.44;;;14.73;26.01
35655;BME280;21773;50.010;19.972;2023-04-03T13:50:01;99438.66;;;14.77;25.15
35655;BME280;21773;50.010;19.972;2023-04-03T13:53:12;99431.69;;;14.46;25.93
35655;BME280;21773;50.010;19.972;2023-04-03T13:56:21;99413.28;;;14.18;25.68
35655;BME280;21773;50.010;19.972;2023-04-03T13:59:29;99440.88;;;14.45;28.27
35655;BME280;21773;50.010;19.972;2023-04-03T14:02:33;99428.50;;;14.61;27.47
35655;BME280;21773;50.010;19.972;2023-04-03T14:05:38;99432.63;;;14.63;27.24
35655;BME280;21773;50.010;19.972;2023-04-03T14:08:42;99435.25;;;14.70;27.18
35655;BME280;21773;50.010;19.972;2023-04-03T14:11:48;99431.09;;;14.67;27.24
35655;BME280;21773;50.010;19.972;2023-04-03T14:14:53;99435.16;;;14.35;26.86
35655;BME280;21773;50.010;19.972;2023-04-03T14:17:57;99437.78;;;14.42;28.14
35655;BME280;21773;50.010;19.972;2023-04-03T14:21:30;99422.31;;;14.42;27.58
35655;BME280;21773;50.010;19.972;2023-04-03T14:24:34;99426.91;;;14.42;27.69
35655;BME280;21773;50.010;19.972;2023-04-03T14:27:39;99431.53;;;14.53;27.11
35655;BME280;21773;50.010;19.972;2023-04-03T14:30:44;99397.38;;;14.10;26.59
35655;BME280;21773;50.010;19.972;2023-04-03T14:33:48;99428.59;;;14.13;27.48
35655;BME280;21773;50.010;19.972;2023-04-03T14:36:53;99431.31;;;14.13;27.79
35655;BME280;21773;50.010;19.972;2023-04-03T14:39:58;99422.00;;;14.09;28.63
35655;BME280;21773;50.010;19.972;2023-04-03T14:43:02;99423.59;;;13.98;28.55
35655;BME280;21773;50.010;19.972;2023-04-03T14:46:08;99422.53;;;13.87;28.11
35655;BME280;21773;50.010;19.972;2023-04-03T14:49:15;99420.44;;;13.71;28.73
35655;BME280;21773;50.010;19.972;2023-04-03T14:52:26;99397.97;;;13.53;28.55
35655;BME280;21773;50.010;19.972;2023-04-03T14:55:30;99421.91;;;13.56;27.85
35655;BME280;21773;50.010;19.972;2023-04-03T14:58:33;99418.38;;;13.37;27.37
35655;BME280;21773;50.010;19.972;2023-04-03T15:01:38;99426.56;;;13.30;28.00
35655;BME280;21773;50.010;19.972;2023-04-03T15:04:41;99413.03;;;13.12;27.90
35655;BME280;21773;50.010;19.972;2023-04-03T15:07:49;99408.94;;;13.03;29.11
35655;BME280;21773;50.010;19.972;2023-04-03T15:10:53;99410.47;;;12.99;28.19
35655;BME280;21773;50.010;19.972;2023-04-03T15:13:57;99403.63;;;12.72;28.46
35655;BME280;21773;50.010;19.972;2023-04-03T15:17:00;99406.25;;;12.60;27.69
35655;BME280;21773;50.010;19.972;2023-04-03T15:20:13;99408.81;;;12.55;28.50
35655;BME280;21773;50.010;19.972;2023-04-03T15:23:18;99390.88;;;12.36;28.45
35655;BME280;21773;50.010;19.972;2023-04-03T15:26:22;99407.47;;;12.39;28.91
35655;BME280;21773;50.010;19.972;2023-04-03T15:29:25;99407.69;;;12.38;28.80
35655;BME280;21773;50.010;19.972;2023-04-03T15:32:29;99405.59;;;12.40;29.32
35655;BME280;21773;50.010;19.972;2023-04-03T15:35:35;99410.38;;;12.38;29.20
35655;BME280;21773;50.010;19.972;2023-04-03T15:38:40;99416.28;;;12.28;29.14
35655;BME280;21773;50.010;19.972;2023-04-03T15:41:44;99408.38;;;12.27;28.57
35655;BME280;21773;50.010;19.972;2023-04-03T15:44:48;99411.50;;;12.30;28.70
35655;BME280;21773;50.010;19.972;2023-04-03T15:47:51;99400.78;;;12.42;29.20
35655;BME280;21773;50.010;19.972;2023-04-03T15:50:54;99409.13;;;12.40;28.14
35655;BME280;21773;50.010;19.972;2023-04-03T15:54:01;99413.06;;;12.44;28.87
35655;BME280;21773;50.010;19.972;2023-04-03T15:57:04;99414.88;;;12.26;28.26
35655;BME280;21773;50.010;19.972;2023-04-03T16:00:09;99407.94;;;12.05;28.90
35655;BME280;21773;50.010;19.972;2023-04-03T16:03:16;99402.94;;;11.77;28.88
35655;BME280;21773;50.010;19.972;2023-04-03T16:06:23;99412.72;;;11.65;29.51
35655;BME280;21773;50.010;19.972;2023-04-03T16:09:28;99410.31;;;11.50;29.65
35655;BME280;21773;50.010;19.972;2023-04-03T16:12:32;99411.38;;;11.43;29.56
35655;BME280;21773;50.010;19.972;2023-04-03T16:15:35;99400.03;;;11.21;29.26
35655;BME280;21773;50.010;19.972;2023-04-03T16:18:39;99405.50;;;11.08;29.39
35655;BME280;21773;50.010;19.972;2023-04-03T16:21:42;99400.94;;;10.95;29.17
35655;BME280;21773;50.010;19.972;2023-04-03T16:24:47;99413.00;;;10.86;29.68
35655;BME280;21773;50.010;19.972;2023-04-03T16:27:51;99411.78;;;10.75;29.69
35655;BME280;21773;50.010;19.972;2023-04-03T16:30:54;99402.28;;;10.47;32.33
35655;BME280;21773;50.010;19.972;2023-04-03T16:33:58;99417.41;;;10.54;30.76